Madison, Georgia
Current Conditions -  °F | °C
As of 6:15 PM on Wednesday 26 Nov 2014 (Local Time) from K3J7 Reporting Station
Clear Clear  
Wind Chill: 52°   Ceiling: Unl
Heat Index: 52°   Visibility: 10mi
Dew Point: 27°   Wind: 0mph
Humidity: 38%   Direction: NA
Pressure: 30.03"   Gusts: NA
Location:  33.6°N, 83.47°W
Report Text: K3J7 262315Z AUTO 00000KT 10SM CLR 11/M03 A3003 RMK AO2
Loading
Personal Weather Stations






























Interactive Weather Map New forecast layout! Learn more

10-Day Weather Forecast

Advertisements
Track Severe Weather on mobile